sensor_id;sensor_type;location;lat;lon;timestamp;pressure;altitude;pressure_sealevel;temperature;humidity
9421;BME280;4749;51.398;5.466;2023-03-18T00:01:30;100573.34;;;14.07;100.00
9421;BME280;4749;51.398;5.466;2023-03-18T00:03:58;100567.09;;;14.12;100.00
9421;BME280;4749;51.398;5.466;2023-03-18T00:06:25;100570.72;;;14.07;100.00
9421;BME280;4749;51.398;5.466;2023-03-18T00:08:53;100582.16;;;14.08;100.00
9421;BME280;4749;51.398;5.466;2023-03-18T00:11:21;100574.25;;;14.06;100.00
9421;BME280;4749;51.398;5.466;2023-03-18T00:13:48;100573.41;;;14.03;100.00
9421;BME280;4749;51.398;5.466;2023-03-18T00:16:16;100579.59;;;14.02;100.00
9421;BME280;4749;51.398;5.466;2023-03-18T00:18:43;100584.00;;;14.01;100.00
9421;BME280;4749;51.398;5.466;2023-03-18T00:21:11;100586.72;;;13.98;100.00
9421;BME280;4749;51.398;5.466;2023-03-18T00:23:38;100590.25;;;13.97;100.00
9421;BME280;4749;51.398;5.466;2023-03-18T00:26:06;100579.72;;;13.96;100.00
9421;BME280;4749;51.398;5.466;2023-03-18T00:28:35;100587.66;;;13.96;100.00
9421;BME280;4749;51.398;5.466;2023-03-18T00:31:07;100581.47;;;13.95;100.00
9421;BME280;4749;51.398;5.466;2023-03-18T00:33:40;100578.81;;;13.95;100.00
9421;BME280;4749;51.398;5.466;2023-03-18T00:36:11;100590.28;;;13.96;100.00
9421;BME280;4749;51.398;5.466;2023-03-18T00:38:43;100600.88;;;13.96;100.00
9421;BME280;4749;51.398;5.466;2023-03-18T00:41:12;100601.75;;;13.93;100.00
9421;BME280;4749;51.398;5.466;2023-03-18T00:43:47;100612.34;;;13.92;100.00
9421;BME280;4749;51.398;5.466;2023-03-18T00:46:29;100615.06;;;13.89;100.00
9421;BME280;4749;51.398;5.466;2023-03-18T00:49:00;100620.38;;;13.86;100.00
9421;BME280;4749;51.398;5.466;2023-03-18T00:51:35;100620.38;;;13.84;100.00
9421;BME280;4749;51.398;5.466;2023-03-18T00:54:06;100621.34;;;13.80;100.00
9421;BME280;4749;51.398;5.466;2023-03-18T00:56:35;100625.75;;;13.78;100.00
9421;BME280;4749;51.398;5.466;2023-03-18T00:59:05;100620.56;;;13.70;100.00
9421;BME280;4749;51.398;5.466;2023-03-18T01:01:33;100625.06;;;13.65;100.00
9421;BME280;4749;51.398;5.466;2023-03-18T01:04:01;100617.28;;;13.55;100.00
9421;BME280;4749;51.398;5.466;2023-03-18T01:06:34;100613.88;;;13.45;100.00
9421;BME280;4749;51.398;5.466;2023-03-18T01:09:03;100623.66;;;13.35;100.00
9421;BME280;4749;51.398;5.466;2023-03-18T01:11:33;100609.72;;;13.26;100.00
9421;BME280;4749;51.398;5.466;2023-03-18T01:14:01;100601.88;;;13.21;100.00
9421;BME280;4749;51.398;5.466;2023-03-18T01:16:29;100601.88;;;13.16;100.00
9421;BME280;4749;51.398;5.466;2023-03-18T01:18:57;100602.81;;;13.11;100.00
9421;BME280;4749;51.398;5.466;2023-03-18T01:21:24;100597.59;;;13.06;100.00
9421;BME280;4749;51.398;5.466;2023-03-18T01:23:52;100610.84;;;13.03;100.00
9421;BME280;4749;51.398;5.466;2023-03-18T01:26:19;100609.97;;;13.00;100.00
9421;BME280;4749;51.398;5.466;2023-03-18T01:28:46;100614.41;;;12.98;100.00
9421;BME280;4749;51.398;5.466;2023-03-18T01:31:14;100599.47;;;12.93;100.00
9421;BME280;4749;51.398;5.466;2023-03-18T01:33:42;100599.50;;;12.92;100.00
9421;BME280;4749;51.398;5.466;2023-03-18T01:36:09;100596.91;;;12.90;100.00
9421;BME280;4749;51.398;5.466;2023-03-18T01:38:37;100592.38;;;13.00;100.00
9421;BME280;4749;51.398;5.466;2023-03-18T01:41:06;100595.88;;;13.02;100.00
9421;BME280;4749;51.398;5.466;2023-03-18T01:43:38;100597.63;;;13.02;100.00
9421;BME280;4749;51.398;5.466;2023-03-18T01:49:06;100594.16;;;13.00;100.00
9421;BME280;4749;51.398;5.466;2023-03-18T01:51:34;100601.31;;;12.88;100.00
9421;BME280;4749;51.398;5.466;2023-03-18T01:54:04;100601.34;;;12.87;100.00
9421;BME280;4749;51.398;5.466;2023-03-18T01:56:34;100595.16;;;12.88;100.00
9421;BME280;4749;51.398;5.466;2023-03-18T01:59:04;100600.38;;;12.95;100.00
9421;BME280;4749;51.398;5.466;2023-03-18T02:02:02;100604.78;;;12.92;100.00
9421;BME280;4749;51.398;5.466;2023-03-18T02:04:37;100611.03;;;12.86;100.00
9421;BME280;4749;51.398;5.466;2023-03-18T02:07:16;100608.41;;;12.83;100.00
9421;BME280;4749;51.398;5.466;2023-03-18T02:09:45;100611.91;;;12.84;100.00
9421;BME280;4749;51.398;5.466;2023-03-18T02:12:17;100609.28;;;12.82;100.00
9421;BME280;4749;51.398;5.466;2023-03-18T02:14:45;100607.53;;;12.81;100.00
9421;BME280;4749;51.398;5.466;2023-03-18T02:17:18;100618.06;;;12.83;100.00
9421;BME280;4749;51.398;5.466;2023-03-18T02:19:58;100614.59;;;12.81;100.00
9421;BME280;4749;51.398;5.466;2023-03-18T02:22:45;100619.00;;;12.79;100.00
9421;BME280;4749;51.398;5.466;2023-03-18T02:25:54;100610.22;;;12.78;100.00
9421;BME280;4749;51.398;5.466;2023-03-18T02:28:27;100616.44;;;12.73;100.00
9421;BME280;4749;51.398;5.466;2023-03-18T02:30:58;100615.56;;;12.72;100.00
9421;BME280;4749;51.398;5.466;2023-03-18T02:33:35;100622.59;;;12.72;100.00
9421;BME280;4749;51.398;5.466;2023-03-18T02:36:23;100616.44;;;12.71;100.00
9421;BME280;4749;51.398;5.466;2023-03-18T02:38:51;100617.22;;;12.81;100.00
9421;BME280;4749;51.398;5.466;2023-03-18T02:41:23;100624.22;;;12.83;100.00
9421;BME280;4749;51.398;5.466;2023-03-18T02:43:50;100623.34;;;12.83;100.00
9421;BME280;4749;51.398;5.466;2023-03-18T02:49:08;100634.81;;;12.77;100.00
9421;BME280;4749;51.398;5.466;2023-03-18T02:51:36;100633.06;;;12.79;100.00
9421;BME280;4749;51.398;5.466;2023-03-18T02:54:18;100634.84;;;12.79;100.00
9421;BME280;4749;51.398;5.466;2023-03-18T02:56:46;100645.38;;;12.79;100.00
9421;BME280;4749;51.398;5.466;2023-03-18T02:59:14;100639.25;;;12.78;100.00
9421;BME280;4749;51.398;5.466;2023-03-18T03:01:45;100642.81;;;12.68;100.00
9421;BME280;4749;51.398;5.466;2023-03-18T03:04:15;100634.81;;;12.77;100.00
9421;BME280;4749;51.398;5.466;2023-03-18T03:06:43;100643.59;;;12.81;100.00
9421;BME280;4749;51.398;5.466;2023-03-18T03:09:14;100643.63;;;12.79;100.00
9421;BME280;4749;51.398;5.466;2023-03-18T03:11:45;100648.03;;;12.79;100.00
9421;BME280;4749;51.398;5.466;2023-03-18T03:14:14;100651.53;;;12.79;100.00
9421;BME280;4749;51.398;5.466;2023-03-18T03:16:42;100657.72;;;12.78;100.00
9421;BME280;4749;51.398;5.466;2023-03-18T03:19:09;100653.28;;;12.77;100.00
9421;BME280;4749;51.398;5.466;2023-03-18T03:21:37;100655.94;;;12.76;100.00
9421;BME280;4749;51.398;5.466;2023-03-18T03:24:06;100658.59;;;12.74;100.00
9421;BME280;4749;51.398;5.466;2023-03-18T03:26:33;100652.56;;;12.60;100.00
9421;BME280;4749;51.398;5.466;2023-03-18T03:29:02;100654.34;;;12.59;100.00
9421;BME280;4749;51.398;5.466;2023-03-18T03:31:30;100649.06;;;12.58;100.00
9421;BME280;4749;51.398;5.466;2023-03-18T03:33:57;100655.22;;;12.58;100.00
9421;BME280;4749;51.398;5.466;2023-03-18T03:36:25;100654.34;;;12.58;100.00
9421;BME280;4749;51.398;5.466;2023-03-18T03:38:52;100662.25;;;12.58;100.00
9421;BME280;4749;51.398;5.466;2023-03-18T03:41:19;100671.94;;;12.57;100.00
9421;BME280;4749;51.398;5.466;2023-03-18T03:43:46;100664.03;;;12.57;100.00
9421;BME280;4749;51.398;5.466;2023-03-18T03:46:14;100667.53;;;12.58;100.00
9421;BME280;4749;51.398;5.466;2023-03-18T03:48:42;100671.06;;;12.57;100.00
9421;BME280;4749;51.398;5.466;2023-03-18T03:51:09;100662.25;;;12.58;100.00
9421;BME280;4749;51.398;5.466;2023-03-18T03:53:37;100667.50;;;12.61;100.00
9421;BME280;4749;51.398;5.466;2023-03-18T03:56:05;100672.78;;;12.61;100.00
9421;BME280;4749;51.398;5.466;2023-03-18T03:58:35;100675.44;;;12.62;100.00
9421;BME280;4749;51.398;5.466;2023-03-18T04:01:03;100682.47;;;12.62;100.00
9421;BME280;4749;51.398;5.466;2023-03-18T04:03:32;100684.22;;;12.63;100.00
9421;BME280;4749;51.398;5.466;2023-03-18T04:05:59;100685.09;;;12.62;100.00
9421;BME280;4749;51.398;5.466;2023-03-18T04:08:26;100683.34;;;12.62;100.00
9421;BME280;4749;51.398;5.466;2023-03-18T04:10:54;100694.78;;;12.61;100.00
9421;BME280;4749;51.398;5.466;2023-03-18T04:13:22;100685.13;;;12.57;100.00
9421;BME280;4749;51.398;5.466;2023-03-18T04:15:50;100682.50;;;12.57;100.00
9421;BME280;4749;51.398;5.466;2023-03-18T04:18:17;100683.38;;;12.56;100.00
9421;BME280;4749;51.398;5.466;2023-03-18T04:20:45;100690.41;;;12.56;100.00
9421;BME280;4749;51.398;5.466;2023-03-18T04:23:12;100685.16;;;12.54;100.00
9421;BME280;4749;51.398;5.466;2023-03-18T04:25:40;100686.94;;;12.54;100.00
9421;BME280;4749;51.398;5.466;2023-03-18T04:28:07;100689.56;;;12.54;100.00
9421;BME280;4749;51.398;5.466;2023-03-18T04:30:34;100691.31;;;12.53;100.00
9421;BME280;4749;51.398;5.466;2023-03-18T04:33:02;100692.19;;;12.52;100.00
9421;BME280;4749;51.398;5.466;2023-03-18T04:35:29;100697.47;;;12.52;100.00
9421;BME280;4749;51.398;5.466;2023-03-18T04:37:56;100696.59;;;12.50;100.00
9421;BME280;4749;51.398;5.466;2023-03-18T04:40:24;100700.13;;;12.49;100.00
9421;BME280;4749;51.398;5.466;2023-03-18T04:42:51;100700.16;;;12.48;100.00
9421;BME280;4749;51.398;5.466;2023-03-18T04:45:19;100710.69;;;12.48;100.00
9421;BME280;4749;51.398;5.466;2023-03-18T04:47:46;100713.34;;;12.48;100.00
9421;BME280;4749;51.398;5.466;2023-03-18T04:50:13;100706.31;;;12.47;100.00
9421;BME280;4749;51.398;5.466;2023-03-18T04:52:41;100709.84;;;12.46;100.00
9421;BME280;4749;51.398;5.466;2023-03-18T04:55:11;100714.25;;;12.45;100.00
9421;BME280;4749;51.398;5.466;2023-03-18T04:57:40;100708.97;;;12.45;100.00
9421;BME280;4749;51.398;5.466;2023-03-18T05:00:13;100714.25;;;12.42;100.00
9421;BME280;4749;51.398;5.466;2023-03-18T05:02:41;100716.91;;;12.39;100.00
9421;BME280;4749;51.398;5.466;2023-03-18T05:05:09;100720.41;;;12.39;100.00
9421;BME280;4749;51.398;5.466;2023-03-18T05:07:36;100725.69;;;12.39;100.00
9421;BME280;4749;51.398;5.466;2023-03-18T05:10:05;100720.41;;;12.41;100.00
9421;BME280;4749;51.398;5.466;2023-03-18T05:12:35;100723.91;;;12.42;100.00
9421;BME280;4749;51.398;5.466;2023-03-18T05:15:04;100712.50;;;12.41;100.00
9421;BME280;4749;51.398;5.466;2023-03-18T05:17:32;100707.25;;;12.39;100.00
9421;BME280;4749;51.398;5.466;2023-03-18T05:20:00;100723.03;;;12.41;100.00
9421;BME280;4749;51.398;5.466;2023-03-18T05:22:27;100716.06;;;12.37;100.00
9421;BME280;4749;51.398;5.466;2023-03-18T05:24:54;100707.28;;;12.36;100.00
9421;BME280;4749;51.398;5.466;2023-03-18T05:27:22;100716.94;;;12.34;100.00
9421;BME280;4749;51.398;5.466;2023-03-18T05:29:49;100716.97;;;12.28;100.00
9421;BME280;4749;51.398;5.466;2023-03-18T05:32:16;100713.50;;;12.22;100.00
9421;BME280;4749;51.398;5.466;2023-03-18T05:34:44;100723.19;;;12.15;100.00
9421;BME280;4749;51.398;5.466;2023-03-18T05:37:13;100721.47;;;12.09;100.00
9421;BME280;4749;51.398;5.466;2023-03-18T05:39:41;100726.78;;;12.02;100.00
9421;BME280;4749;51.398;5.466;2023-03-18T05:42:10;100730.31;;;11.93;100.00
9421;BME280;4749;51.398;5.466;2023-03-18T05:44:38;100736.53;;;11.86;100.00
9421;BME280;4749;51.398;5.466;2023-03-18T05:47:09;100736.56;;;11.80;100.00
9421;BME280;4749;51.398;5.466;2023-03-18T05:49:37;100731.28;;;11.72;100.00
9421;BME280;4749;51.398;5.466;2023-03-18T05:52:04;100747.97;;;11.71;100.00
9421;BME280;4749;51.398;5.466;2023-03-18T05:54:32;100742.69;;;11.73;100.00
9421;BME280;4749;51.398;5.466;2023-03-18T05:56:59;100749.69;;;11.74;100.00
9421;BME280;4749;51.398;5.466;2023-03-18T05:59:26;100747.06;;;11.74;100.00
9421;BME280;4749;51.398;5.466;2023-03-18T06:01:53;100743.53;;;11.76;100.00
9421;BME280;4749;51.398;5.466;2023-03-18T06:04:21;100749.69;;;11.78;100.00
9421;BME280;4749;51.398;5.466;2023-03-18T06:06:48;100747.09;;;11.80;100.00
9421;BME280;4749;51.398;5.466;2023-03-18T06:09:15;100752.34;;;11.81;100.00
9421;BME280;4749;51.398;5.466;2023-03-18T06:11:43;100751.47;;;11.82;100.00
9421;BME280;4749;51.398;5.466;2023-03-18T06:14:12;100738.28;;;11.82;100.00
9421;BME280;4749;51.398;5.466;2023-03-18T06:16:40;100736.53;;;11.81;100.00
9421;BME280;4749;51.398;5.466;2023-03-18T06:19:08;100738.31;;;11.81;100.00
9421;BME280;4749;51.398;5.466;2023-03-18T06:21:40;100744.44;;;11.78;100.00
9421;BME280;4749;51.398;5.466;2023-03-18T06:24:08;100749.69;;;11.75;100.00
9421;BME280;4749;51.398;5.466;2023-03-18T06:26:35;100757.59;;;11.74;100.00
9421;BME280;4749;51.398;5.466;2023-03-18T06:29:02;100751.47;;;11.78;100.00
9421;BME280;4749;51.398;5.466;2023-03-18T06:31:31;100764.63;;;11.79;100.00
9421;BME280;4749;51.398;5.466;2023-03-18T06:33:59;100772.53;;;11.81;100.00
9421;BME280;4749;51.398;5.466;2023-03-18T06:36:27;100773.41;;;11.83;100.00
9421;BME280;4749;51.398;5.466;2023-03-18T06:38:54;100776.03;;;11.83;100.00
9421;BME280;4749;51.398;5.466;2023-03-18T06:41:22;100769.91;;;11.86;100.00
9421;BME280;4749;51.398;5.466;2023-03-18T06:43:49;100772.50;;;11.89;100.00
9421;BME280;4749;51.398;5.466;2023-03-18T06:46:18;100773.38;;;11.89;100.00
9421;BME280;4749;51.398;5.466;2023-03-18T06:48:45;100774.25;;;11.93;100.00
9421;BME280;4749;51.398;5.466;2023-03-18T06:51:12;100768.09;;;11.95;100.00
9421;BME280;4749;51.398;5.466;2023-03-18T06:53:39;100782.13;;;11.97;100.00
9421;BME280;4749;51.398;5.466;2023-03-18T06:56:08;100779.47;;;12.00;100.00
9421;BME280;4749;51.398;5.466;2023-03-18T06:58:35;100790.03;;;12.05;100.00
9421;BME280;4749;51.398;5.466;2023-03-18T07:01:03;100790.00;;;12.08;100.00
9421;BME280;4749;51.398;5.466;2023-03-18T07:03:31;100792.63;;;12.13;100.00
9421;BME280;4749;51.398;5.466;2023-03-18T07:05:59;100796.97;;;12.18;100.00
9421;BME280;4749;51.398;5.466;2023-03-18T07:08:27;100793.47;;;12.19;100.00
9421;BME280;4749;51.398;5.466;2023-03-18T07:10:55;100789.06;;;12.23;100.00
9421;BME280;4749;51.398;5.466;2023-03-18T07:13:23;100788.13;;;12.27;100.00
9421;BME280;4749;51.398;5.466;2023-03-18T07:15:50;100782.88;;;12.30;100.00
9421;BME280;4749;51.398;5.466;2023-03-18T07:18:18;100794.25;;;12.35;100.00
9421;BME280;4749;51.398;5.466;2023-03-18T07:20:45;100793.38;;;12.37;100.00
9421;BME280;4749;51.398;5.466;2023-03-18T07:23:12;100802.13;;;12.43;100.00
9421;BME280;4749;51.398;5.466;2023-03-18T07:25:40;100808.25;;;12.48;100.00
9421;BME280;4749;51.398;5.466;2023-03-18T07:28:08;100808.22;;;12.52;100.00
9421;BME280;4749;51.398;5.466;2023-03-18T07:30:36;100809.09;;;12.56;100.00
9421;BME280;4749;51.398;5.466;2023-03-18T07:33:04;100807.28;;;12.62;100.00
9421;BME280;4749;51.398;5.466;2023-03-18T07:35:32;100812.50;;;12.68;100.00
9421;BME280;4749;51.398;5.466;2023-03-18T07:37:59;100809.84;;;12.73;100.00
9421;BME280;4749;51.398;5.466;2023-03-18T07:40:26;100816.88;;;12.79;100.00
9421;BME280;4749;51.398;5.466;2023-03-18T07:42:53;100822.09;;;12.86;100.00
9421;BME280;4749;51.398;5.466;2023-03-18T07:45:21;100825.59;;;12.88;100.00
9421;BME280;4749;51.398;5.466;2023-03-18T07:47:48;100829.94;;;12.92;100.00
9421;BME280;4749;51.398;5.466;2023-03-18T07:50:16;100828.16;;;12.96;100.00
9421;BME280;4749;51.398;5.466;2023-03-18T07:52:44;100831.63;;;13.01;100.00
9421;BME280;4749;51.398;5.466;2023-03-18T07:55:14;100828.09;;;13.02;100.00
9421;BME280;4749;51.398;5.466;2023-03-18T07:57:41;100819.28;;;13.06;100.00
9421;BME280;4749;51.398;5.466;2023-03-18T08:00:10;100829.78;;;13.15;100.00
9421;BME280;4749;51.398;5.466;2023-03-18T08:02:38;100831.44;;;13.27;100.00
9421;BME280;4749;51.398;5.466;2023-03-18T08:05:07;100824.34;;;13.35;100.00
9421;BME280;4749;51.398;5.466;2023-03-18T08:07:35;100819.00;;;13.41;100.00
9421;BME280;4749;51.398;5.466;2023-03-18T08:10:04;100818.06;;;13.50;100.00
9421;BME280;4749;51.398;5.466;2023-03-18T08:12:31;100809.16;;;13.59;100.00
9421;BME280;4749;51.398;5.466;2023-03-18T08:15:17;100812.59;;;13.67;100.00
9421;BME280;4749;51.398;5.466;2023-03-18T08:17:44;100812.53;;;13.74;100.00
9421;BME280;4749;51.398;5.466;2023-03-18T08:20:12;100827.41;;;13.82;100.00
9421;BME280;4749;51.398;5.466;2023-03-18T08:22:39;100821.13;;;13.92;100.00
9421;BME280;4749;51.398;5.466;2023-03-18T08:25:07;100818.38;;;14.01;100.00
9421;BME280;4749;51.398;5.466;2023-03-18T08:27:34;100828.81;;;14.12;100.00
9421;BME280;4749;51.398;5.466;2023-03-18T08:30:02;100825.22;;;14.19;100.00
9421;BME280;4749;51.398;5.466;2023-03-18T08:32:30;100819.84;;;14.25;100.00
9421;BME280;4749;51.398;5.466;2023-03-18T08:34:57;100825.19;;;14.20;100.00
9421;BME280;4749;51.398;5.466;2023-03-18T08:37:24;100825.97;;;14.30;100.00
9421;BME280;4749;51.398;5.466;2023-03-18T08:39:51;100832.84;;;14.43;100.00
9421;BME280;4749;51.398;5.466;2023-03-18T08:42:19;100830.09;;;14.52;100.00
9421;BME280;4749;51.398;5.466;2023-03-18T08:44:46;100836.16;;;14.60;100.00
9421;BME280;4749;51.398;5.466;2023-03-18T08:47:13;100830.88;;;14.60;100.00
9421;BME280;4749;51.398;5.466;2023-03-18T08:49:40;100836.22;;;14.54;100.00
9421;BME280;4749;51.398;5.466;2023-03-18T08:52:07;100840.69;;;14.51;100.00
9421;BME280;4749;51.398;5.466;2023-03-18T08:54:36;100847.59;;;14.61;100.00
9421;BME280;4749;51.398;5.466;2023-03-18T08:57:03;100843.84;;;14.77;100.00
9421;BME280;4749;51.398;5.466;2023-03-18T08:59:30;100835.59;;;14.99;100.00
9421;BME280;4749;51.398;5.466;2023-03-18T09:01:58;100837.91;;;15.18;100.00
9421;BME280;4749;51.398;5.466;2023-03-18T09:04:25;100843.94;;;15.28;100.00
9421;BME280;4749;51.398;5.466;2023-03-18T09:06:52;100839.22;;;15.45;100.00
9421;BME280;4749;51.398;5.466;2023-03-18T09:09:19;100838.94;;;15.65;100.00
9421;BME280;4749;51.398;5.466;2023-03-18T09:11:52;100844.66;;;15.89;100.00
9421;BME280;4749;51.398;5.466;2023-03-18T09:14:20;100846.66;;;16.21;100.00
9421;BME280;4749;51.398;5.466;2023-03-18T09:16:48;100834.56;;;16.51;100.00
9421;BME280;4749;51.398;5.466;2023-03-18T09:19:15;100849.84;;;16.80;100.00
9421;BME280;4749;51.398;5.466;2023-03-18T09:21:42;100849.41;;;17.00;100.00
9421;BME280;4749;51.398;5.466;2023-03-18T09:24:10;100853.44;;;17.16;100.00
9421;BME280;4749;51.398;5.466;2023-03-18T09:26:37;100846.94;;;17.28;100.00
9421;BME280;4749;51.398;5.466;2023-03-18T09:29:05;100854.69;;;17.37;100.00
9421;BME280;4749;51.398;5.466;2023-03-18T09:31:37;100846.56;;;17.43;100.00
9421;BME280;4749;51.398;5.466;2023-03-18T09:34:04;100840.25;;;17.47;100.00
9421;BME280;4749;51.398;5.466;2023-03-18T09:36:31;100848.00;;;17.55;100.00
9421;BME280;4749;51.398;5.466;2023-03-18T09:38:59;100855.00;;;17.59;100.00
9421;BME280;4749;51.398;5.466;2023-03-18T09:42:36;100848.84;;;17.57;100.00
9421;BME280;4749;51.398;5.466;2023-03-18T09:44:42;100854.97;;;17.60;100.00
9421;BME280;4749;51.398;5.466;2023-03-18T09:50:36;100852.25;;;17.62;100.00
9421;BME280;4749;51.398;5.466;2023-03-18T09:53:41;100847.78;;;17.64;100.00
9421;BME280;4749;51.398;5.466;2023-03-18T09:56:16;100851.19;;;17.69;100.00
9421;BME280;4749;51.398;5.466;2023-03-18T09:59:05;100851.13;;;17.72;100.00
9421;BME280;4749;51.398;5.466;2023-03-18T10:01:38;100854.72;;;17.71;100.00
9421;BME280;4749;51.398;5.466;2023-03-18T10:04:26;100853.75;;;17.73;100.00
9421;BME280;4749;51.398;5.466;2023-03-18T10:07:04;100855.34;;;17.81;100.00
9421;BME280;4749;51.398;5.466;2023-03-18T10:09:41;100858.75;;;17.86;100.00
9421;BME280;4749;51.398;5.466;2023-03-18T10:12:20;100849.75;;;17.90;100.00
9421;BME280;4749;51.398;5.466;2023-03-18T10:17:45;100851.44;;;17.94;100.00
9421;BME280;4749;51.398;5.466;2023-03-18T10:26:07;100860.97;;;18.32;100.00
9421;BME280;4749;51.398;5.466;2023-03-18T10:29:24;100856.72;;;18.56;100.00
9421;BME280;4749;51.398;5.466;2023-03-18T10:35:25;100839.16;;;18.50;100.00
9421;BME280;4749;51.398;5.466;2023-03-18T10:38:18;100841.31;;;18.38;100.00
9421;BME280;4749;51.398;5.466;2023-03-18T10:40:47;100843.06;;;18.39;100.00
9421;BME280;4749;51.398;5.466;2023-03-18T10:43:22;100844.66;;;18.44;100.00
9421;BME280;4749;51.398;5.466;2023-03-18T10:46:04;100848.47;;;18.67;100.00
9421;BME280;4749;51.398;5.466;2023-03-18T10:51:29;100857.91;;;19.05;100.00
9421;BME280;4749;51.398;5.466;2023-03-18T10:54:18;100858.97;;;19.27;100.00
9421;BME280;4749;51.398;5.466;2023-03-18T10:56:48;100864.88;;;19.37;100.00
9421;BME280;4749;51.398;5.466;2023-03-18T10:59:19;100867.34;;;19.43;100.00
9421;BME280;4749;51.398;5.466;2023-03-18T11:01:53;100857.31;;;19.50;100.00
9421;BME280;4749;51.398;5.466;2023-03-18T11:04:23;100859.88;;;19.53;100.00
9421;BME280;4749;51.398;5.466;2023-03-18T11:07:00;100862.88;;;19.44;100.00
9421;BME280;4749;51.398;5.466;2023-03-18T11:09:37;100851.84;;;19.28;100.00
9421;BME280;4749;51.398;5.466;2023-03-18T11:12:18;100856.00;;;19.08;100.00
9421;BME280;4749;51.398;5.466;2023-03-18T11:14:50;100858.44;;;18.88;100.00
9421;BME280;4749;51.398;5.466;2023-03-18T11:17:31;100862.50;;;18.72;100.00
9421;BME280;4749;51.398;5.466;2023-03-18T11:22:50;100870.31;;;18.47;100.00
9421;BME280;4749;51.398;5.466;2023-03-18T11:25:24;100869.88;;;18.31;100.00
9421;BME280;4749;51.398;5.466;2023-03-18T11:28:05;100874.66;;;18.20;100.00
9421;BME280;4749;51.398;5.466;2023-03-18T11:30:57;100874.69;;;18.18;100.00
9421;BME280;4749;51.398;5.466;2023-03-18T11:33:31;100872.09;;;18.17;100.00
9421;BME280;4749;51.398;5.466;2023-03-18T11:36:08;100879.97;;;18.20;100.00
9421;BME280;4749;51.398;5.466;2023-03-18T11:38:36;100877.19;;;18.24;100.00
9421;BME280;4749;51.398;5.466;2023-03-18T11:41:15;100879.53;;;18.35;100.00
9421;BME280;4749;51.398;5.466;2023-03-18T11:43:58;100889.69;;;18.52;100.00
9421;BME280;4749;51.398;5.466;2023-03-18T11:46:39;100883.97;;;18.66;100.00
9421;BME280;4749;51.398;5.466;2023-03-18T11:49:14;100890.16;;;18.68;100.00
9421;BME280;4749;51.398;5.466;2023-03-18T11:51:51;100889.53;;;18.56;100.00
9421;BME280;4749;51.398;5.466;2023-03-18T12:00:28;100889.00;;;18.45;100.00
9421;BME280;4749;51.398;5.466;2023-03-18T12:06:24;100883.00;;;18.08;100.00
9421;BME280;4749;51.398;5.466;2023-03-18T12:09:14;100889.59;;;17.93;100.00
9421;BME280;4749;51.398;5.466;2023-03-18T12:15:03;100880.28;;;17.77;100.00
9421;BME280;4749;51.398;5.466;2023-03-18T12:18:05;100867.81;;;17.79;100.00
9421;BME280;4749;51.398;5.466;2023-03-18T12:23:44;100883.81;;;18.10;100.00
9421;BME280;4749;51.398;5.466;2023-03-18T12:26:33;100875.91;;;18.07;100.00
9421;BME280;4749;51.398;5.466;2023-03-18T12:32:28;100866.44;;;18.59;100.00
9421;BME280;4749;51.398;5.466;2023-03-18T12:42:17;100878.13;;;18.84;100.00
9421;BME280;4749;51.398;5.466;2023-03-18T12:45:11;100865.50;;;18.60;100.00
9421;BME280;4749;51.398;5.466;2023-03-18T12:48:46;100869.63;;;18.40;100.00
9421;BME280;4749;51.398;5.466;2023-03-18T12:51:21;100865.59;;;18.27;100.00
9421;BME280;4749;51.398;5.466;2023-03-18T12:53:59;100871.88;;;18.23;100.00
9421;BME280;4749;51.398;5.466;2023-03-18T12:56:29;100873.72;;;18.21;100.00
9421;BME280;4749;51.398;5.466;2023-03-18T12:59:07;100864.66;;;18.28;100.00
9421;BME280;4749;51.398;5.466;2023-03-18T13:01:57;100871.25;;;18.46;100.00
9421;BME280;4749;51.398;5.466;2023-03-18T13:04:30;100861.41;;;18.48;100.00
9421;BME280;4749;51.398;5.466;2023-03-18T13:07:15;100859.13;;;18.36;100.00
9421;BME280;4749;51.398;5.466;2023-03-18T13:09:48;100856.63;;;18.29;100.00
9421;BME280;4749;51.398;5.466;2023-03-18T13:12:37;100864.66;;;18.28;100.00
9421;BME280;4749;51.398;5.466;2023-03-18T13:17:55;100855.72;;;18.31;100.00
9421;BME280;4749;51.398;5.466;2023-03-18T13:20:35;100864.50;;;18.34;100.00
9421;BME280;4749;51.398;5.466;2023-03-18T13:23:31;100858.75;;;18.48;100.00
9421;BME280;4749;51.398;5.466;2023-03-18T13:43:40;100858.84;;;19.30;100.00
9421;BME280;4749;51.398;5.466;2023-03-18T13:46:22;100866.84;;;19.30;100.00
9421;BME280;4749;51.398;5.466;2023-03-18T13:48:56;100868.31;;;19.12;100.00
9421;BME280;4749;51.398;5.466;2023-03-18T13:53:58;100860.53;;;18.78;100.00
9421;BME280;4749;51.398;5.466;2023-03-18T14:04:56;100868.75;;;19.80;100.00
9421;BME280;4749;51.398;5.466;2023-03-18T14:07:26;100869.69;;;19.52;100.00
9421;BME280;4749;51.398;5.466;2023-03-18T14:12:46;100848.00;;;19.36;100.00
9421;BME280;4749;51.398;5.466;2023-03-18T14:17:53;100839.63;;;19.21;100.00
9421;BME280;4749;51.398;5.466;2023-03-18T14:26:23;100833.47;;;18.63;100.00
9421;BME280;4749;51.398;5.466;2023-03-18T14:29:15;100834.13;;;18.71;100.00
9421;BME280;4749;51.398;5.466;2023-03-18T14:31:56;100829.59;;;19.02;100.00
9421;BME280;4749;51.398;5.466;2023-03-18T14:34:27;100832.00;;;19.10;100.00
9421;BME280;4749;51.398;5.466;2023-03-18T14:39:40;100821.66;;;18.99;100.00
9421;BME280;4749;51.398;5.466;2023-03-18T14:45:08;100807.16;;;19.09;100.00
9421;BME280;4749;51.398;5.466;2023-03-18T14:48:04;100810.78;;;18.79;100.00
9421;BME280;4749;51.398;5.466;2023-03-18T14:50:59;100805.66;;;18.73;100.00
9421;BME280;4749;51.398;5.466;2023-03-18T14:53:37;100804.13;;;18.64;100.00
9421;BME280;4749;51.398;5.466;2023-03-18T14:56:20;100797.84;;;18.68;100.00
9421;BME280;4749;51.398;5.466;2023-03-18T14:58:51;100800.03;;;18.82;100.00
9421;BME280;4749;51.398;5.466;2023-03-18T15:01:45;100803.53;;;18.84;100.00
9421;BME280;4749;51.398;5.466;2023-03-18T15:04:26;100799.84;;;18.88;100.00
9421;BME280;4749;51.398;5.466;2023-03-18T15:06:55;100799.03;;;18.86;100.00